Time;durP1;ratioP1;P1;durP2;ratioP2;P2;SDS_P1;SDS_P2;PMS_P1;PMS_P2;Temp;Humidity;BMP_temperature;BMP_pressure;BME280_temperature;BME280_humidity;BME280_pressure;Samples;Min_cycle;Max_cycle;Signal;HPM_P1;HPM_P2
2023/05/06 00:01:05;;;;;;;2.10;2.10;;;;;;;;;;4205241;28;20048;-58
2023/05/06 00:03:26;;;;;;;2.70;2.60;;;;;;;;;;4205292;28;20059;-58
2023/05/06 00:05:47;;;;;;;2.35;2.35;;;;;;;;;;4205244;28;20104;-57
2023/05/06 00:08:07;;;;;;;2.20;2.20;;;;;;;;;;4203653;28;20086;-58
2023/05/06 00:10:27;;;;;;;2.15;2.15;;;;;;;;;;4205435;28;20243;-57
2023/05/06 00:12:48;;;;;;;2.45;2.45;;;;;;;;;;4205420;28;20223;-58
2023/05/06 00:15:08;;;;;;;2.78;2.78;;;;;;;;;;4205075;28;20048;-57
2023/05/06 00:17:29;;;;;;;3.22;3.22;;;;;;;;;;4205205;28;20074;-58
2023/05/06 00:19:51;;;;;;;2.88;2.67;;;;;;;;;;4205187;28;20146;-57
2023/05/06 00:22:11;;;;;;;3.35;3.25;;;;;;;;;;4205330;28;20043;-57
2023/05/06 00:24:31;;;;;;;2.53;2.47;;;;;;;;;;4205169;28;20075;-57
2023/05/06 00:26:52;;;;;;;3.25;3.00;;;;;;;;;;4205077;28;20116;-58
2023/05/06 00:29:12;;;;;;;2.78;2.78;;;;;;;;;;4204765;28;20047;-57
2023/05/06 00:31:32;;;;;;;2.67;2.58;;;;;;;;;;4204675;28;20329;-58
2023/05/06 00:33:52;;;;;;;2.45;2.42;;;;;;;;;;4204708;28;20232;-58
2023/05/06 00:36:12;;;;;;;2.10;2.10;;;;;;;;;;4205095;28;20374;-57
2023/05/06 00:38:32;;;;;;;2.95;2.85;;;;;;;;;;4204774;28;20102;-57
2023/05/06 00:40:53;;;;;;;3.40;3.20;;;;;;;;;;4204495;28;20051;-57
2023/05/06 00:43:13;;;;;;;2.58;2.47;;;;;;;;;;4205026;28;20227;-58
2023/05/06 00:45:33;;;;;;;3.05;2.85;;;;;;;;;;4204103;28;20154;-57
2023/05/06 00:47:53;;;;;;;3.70;3.60;;;;;;;;;;4204684;28;20058;-58
2023/05/06 00:50:14;;;;;;;2.35;2.25;;;;;;;;;;4204836;28;20369;-58
2023/05/06 00:52:34;;;;;;;3.33;3.22;;;;;;;;;;4204004;28;20116;-57
2023/05/06 00:54:55;;;;;;;3.42;3.42;;;;;;;;;;4204162;28;20370;-58
2023/05/06 00:57:15;;;;;;;2.42;2.42;;;;;;;;;;4204388;28;20040;-57
2023/05/06 00:59:35;;;;;;;2.97;2.78;;;;;;;;;;4204651;28;20078;-58
2023/05/06 01:01:55;;;;;;;3.13;2.95;;;;;;;;;;4203380;28;20078;-57
2023/05/06 01:04:16;;;;;;;2.97;2.95;;;;;;;;;;4202166;28;20114;-57
2023/05/06 01:06:49;;;;;;;2.47;2.47;;;;;;;;;;4206243;28;20109;-58
2023/05/06 01:09:18;;;;;;;2.78;2.67;;;;;;;;;;4206886;28;20116;-57
2023/05/06 01:12:08;;;;;;;2.45;2.45;;;;;;;;;;4206942;28;20397;-57
2023/05/06 01:14:34;;;;;;;2.85;2.75;;;;;;;;;;4203211;28;20098;-57
2023/05/06 01:16:55;;;;;;;3.13;3.08;;;;;;;;;;4206651;28;20051;-57
2023/05/06 01:19:26;;;;;;;2.65;2.65;;;;;;;;;;4207010;28;20290;-57
2023/05/06 01:21:46;;;;;;;2.55;2.40;;;;;;;;;;4205599;28;20055;-58
2023/05/06 01:24:07;;;;;;;2.42;2.42;;;;;;;;;;4206925;28;20370;-57
2023/05/06 01:26:27;;;;;;;2.55;2.55;;;;;;;;;;4206973;28;20248;-57
2023/05/06 01:28:48;;;;;;;2.45;2.45;;;;;;;;;;4206848;28;20256;-58
2023/05/06 01:31:10;;;;;;;2.63;2.63;;;;;;;;;;4206659;28;20071;-58
2023/05/06 01:33:39;;;;;;;3.23;3.23;;;;;;;;;;4206809;28;20055;-57
2023/05/06 01:36:06;;;;;;;2.92;2.83;;;;;;;;;;4206868;28;20352;-58
2023/05/06 01:38:31;;;;;;;2.95;2.85;;;;;;;;;;4206307;28;20075;-57
2023/05/06 01:40:53;;;;;;;2.75;2.75;;;;;;;;;;4205483;28;20051;-57
2023/05/06 01:43:14;;;;;;;3.35;3.25;;;;;;;;;;4206702;28;20048;-57
2023/05/06 01:45:35;;;;;;;3.70;3.40;;;;;;;;;;4206000;28;20059;-57
2023/05/06 01:47:56;;;;;;;2.78;2.63;;;;;;;;;;4206581;28;20051;-57
2023/05/06 01:50:16;;;;;;;3.15;3.05;;;;;;;;;;4205706;28;20083;-58
2023/05/06 01:52:36;;;;;;;3.47;3.38;;;;;;;;;;4189620;28;20299;-57
2023/05/06 01:54:57;;;;;;;2.85;2.85;;;;;;;;;;4206126;28;20098;-57
2023/05/06 01:57:17;;;;;;;2.38;1.98;;;;;;;;;;4205417;28;20048;-57
2023/05/06 01:59:37;;;;;;;2.50;2.50;;;;;;;;;;4206751;28;20105;-58
2023/05/06 02:01:57;;;;;;;3.05;2.95;;;;;;;;;;4191580;28;20107;-57
2023/05/06 02:04:17;;;;;;;3.53;3.42;;;;;;;;;;4205163;28;20104;-58
2023/05/06 02:06:38;;;;;;;2.85;2.67;;;;;;;;;;4205177;28;20062;-57
2023/05/06 02:08:58;;;;;;;2.80;2.72;;;;;;;;;;4206313;28;20117;-58
2023/05/06 02:11:18;;;;;;;2.95;2.85;;;;;;;;;;4204945;28;20116;-58
2023/05/06 02:13:39;;;;;;;2.70;2.60;;;;;;;;;;4206249;28;20146;-57
2023/05/06 02:16:00;;;;;;;2.50;2.50;;;;;;;;;;4204404;28;20048;-57
2023/05/06 02:18:20;;;;;;;3.22;3.05;;;;;;;;;;4205072;28;20047;-57
2023/05/06 02:20:40;;;;;;;3.30;3.25;;;;;;;;;;4206191;28;20059;-58
2023/05/06 02:23:01;;;;;;;2.80;2.72;;;;;;;;;;4206178;28;20089;-58
2023/05/06 02:25:21;;;;;;;3.35;3.15;;;;;;;;;;4206030;28;20043;-57
2023/05/06 02:27:43;;;;;;;2.58;2.58;;;;;;;;;;4204870;28;20116;-57
2023/05/06 02:30:05;;;;;;;2.80;2.80;;;;;;;;;;4206185;28;20101;-57
2023/05/06 02:32:26;;;;;;;2.80;2.80;;;;;;;;;;4192666;28;20247;-57
2023/05/06 02:34:46;;;;;;;3.08;2.97;;;;;;;;;;4205839;28;20048;-57
2023/05/06 02:37:06;;;;;;;3.65;3.65;;;;;;;;;;4204764;28;20454;-58
2023/05/06 02:39:26;;;;;;;2.70;2.70;;;;;;;;;;4205627;28;20074;-57
2023/05/06 02:41:46;;;;;;;3.25;3.20;;;;;;;;;;4204158;28;20267;-57
2023/05/06 02:44:07;;;;;;;2.70;2.50;;;;;;;;;;4205305;28;20397;-58
2023/05/06 02:46:27;;;;;;;3.88;3.60;;;;;;;;;;4205858;28;20055;-57
2023/05/06 02:48:47;;;;;;;2.78;2.78;;;;;;;;;;4204431;28;20047;-57
2023/05/06 02:51:07;;;;;;;3.30;3.03;;;;;;;;;;4205904;28;20051;-57
2023/05/06 02:53:27;;;;;;;3.53;3.42;;;;;;;;;;4205716;28;20355;-58
2023/05/06 02:55:47;;;;;;;3.08;3.08;;;;;;;;;;4204313;28;20159;-57
2023/05/06 02:58:08;;;;;;;3.00;2.90;;;;;;;;;;4203720;28;20127;-57
2023/05/06 03:00:28;;;;;;;3.85;3.80;;;;;;;;;;4205262;28;20059;-57
2023/05/06 03:02:48;;;;;;;2.83;2.83;;;;;;;;;;4204205;28;20382;-58
2023/05/06 03:05:09;;;;;;;4.53;4.15;;;;;;;;;;4205504;28;20106;-57
2023/05/06 03:07:29;;;;;;;3.60;3.50;;;;;;;;;;4205439;28;20105;-57
2023/05/06 03:09:49;;;;;;;3.45;3.35;;;;;;;;;;4204928;28;20359;-57
2023/05/06 03:12:10;;;;;;;4.45;4.15;;;;;;;;;;4205510;28;20090;-57
2023/05/06 03:14:31;;;;;;;3.13;3.03;;;;;;;;;;4205545;28;20054;-57
2023/05/06 03:16:51;;;;;;;3.58;3.47;;;;;;;;;;4205477;28;20086;-57
2023/05/06 03:19:11;;;;;;;3.38;3.28;;;;;;;;;;4204509;28;20275;-57
2023/05/06 03:21:32;;;;;;;3.20;3.10;;;;;;;;;;4205339;28;20055;-57
2023/05/06 03:23:52;;;;;;;4.20;4.00;;;;;;;;;;4204547;28;20083;-57
2023/05/06 03:26:12;;;;;;;3.13;3.03;;;;;;;;;;4204971;28;20043;-57
2023/05/06 03:28:32;;;;;;;3.72;3.65;;;;;;;;;;4203570;28;20056;-57
2023/05/06 03:30:52;;;;;;;4.22;4.03;;;;;;;;;;4204646;28;20051;-57
2023/05/06 03:33:12;;;;;;;3.92;3.72;;;;;;;;;;4205238;28;20236;-57
2023/05/06 03:35:32;;;;;;;3.88;3.78;;;;;;;;;;4204404;28;20082;-58
2023/05/06 03:37:52;;;;;;;3.92;3.83;;;;;;;;;;4204571;28;20089;-57
2023/05/06 03:40:12;;;;;;;3.13;3.03;;;;;;;;;;4205008;28;20066;-57
2023/05/06 03:42:33;;;;;;;3.72;3.63;;;;;;;;;;4205044;28;20358;-57
2023/05/06 03:44:53;;;;;;;3.58;3.58;;;;;;;;;;4204610;28;20081;-57
2023/05/06 03:47:13;;;;;;;3.95;3.85;;;;;;;;;;4205029;28;20299;-57
2023/05/06 03:49:34;;;;;;;3.75;3.75;;;;;;;;;;4204408;28;20050;-57
2023/05/06 03:51:55;;;;;;;4.00;3.90;;;;;;;;;;4204712;28;20074;-57
2023/05/06 03:54:15;;;;;;;3.33;3.33;;;;;;;;;;4205054;28;20047;-57
2023/05/06 03:56:35;;;;;;;3.55;3.45;;;;;;;;;;4205037;28;20046;-57
2023/05/06 03:58:55;;;;;;;3.35;3.25;;;;;;;;;;4205019;28;20056;-57
2023/05/06 04:01:17;;;;;;;3.47;3.38;;;;;;;;;;4204141;28;20051;-57
2023/05/06 04:03:37;;;;;;;3.88;3.78;;;;;;;;;;4204871;28;20089;-57
2023/05/06 04:05:57;;;;;;;4.57;4.45;;;;;;;;;;4204448;28;20055;-58
2023/05/06 04:08:17;;;;;;;4.38;4.18;;;;;;;;;;4204828;28;20052;-57
2023/05/06 04:10:40;;;;;;;4.15;4.05;;;;;;;;;;4203609;28;20456;-57
2023/05/06 04:13:01;;;;;;;3.90;3.70;;;;;;;;;;4204692;28;20051;-57
2023/05/06 04:15:22;;;;;;;3.80;3.70;;;;;;;;;;4204692;28;20103;-57
2023/05/06 04:17:42;;;;;;;3.75;3.65;;;;;;;;;;4203260;28;20057;-57
2023/05/06 04:20:05;;;;;;;4.60;3.35;;;;;;;;;;4203842;28;20282;-57
2023/05/06 04:22:26;;;;;;;3.15;2.95;;;;;;;;;;4205000;28;20056;-57
2023/05/06 04:24:46;;;;;;;3.50;3.40;;;;;;;;;;4202591;28;20139;-57
2023/05/06 04:27:06;;;;;;;3.85;3.58;;;;;;;;;;4197000;28;20083;-57
2023/05/06 04:29:26;;;;;;;3.70;3.60;;;;;;;;;;4203643;28;20255;-58
2023/05/06 04:31:47;;;;;;;4.18;3.97;;;;;;;;;;4203390;28;20109;-57
2023/05/06 04:34:09;;;;;;;5.22;4.82;;;;;;;;;;4203359;28;20105;-57
2023/05/06 04:36:30;;;;;;;5.05;4.95;;;;;;;;;;4190798;28;20051;-57
2023/05/06 04:38:52;;;;;;;4.47;4.38;;;;;;;;;;4203692;28;20051;-57
2023/05/06 04:41:12;;;;;;;4.45;4.32;;;;;;;;;;4206746;28;20366;-57
2023/05/06 04:43:32;;;;;;;4.20;4.00;;;;;;;;;;4206235;28;20299;-57
2023/05/06 04:45:53;;;;;;;4.90;4.80;;;;;;;;;;4207301;28;20043;-57
2023/05/06 04:48:13;;;;;;;4.43;4.32;;;;;;;;;;4207625;28;20400;-57
2023/05/06 04:50:33;;;;;;;5.07;4.88;;;;;;;;;;4206810;28;20059;-57
2023/05/06 04:52:53;;;;;;;3.85;3.75;;;;;;;;;;4207005;28;20231;-57
2023/05/06 04:55:13;;;;;;;4.32;4.05;;;;;;;;;;4206813;28;20047;-57
2023/05/06 04:57:33;;;;;;;3.15;3.15;;;;;;;;;;4207292;28;20111;-58
2023/05/06 04:59:54;;;;;;;3.40;3.40;;;;;;;;;;4206908;28;20090;-58
2023/05/06 05:02:14;;;;;;;4.57;4.38;;;;;;;;;;4207114;28;20116;-57
2023/05/06 05:04:35;;;;;;;4.30;4.20;;;;;;;;;;4206112;28;20085;-57
2023/05/06 05:06:56;;;;;;;5.03;4.75;;;;;;;;;;4207053;28;20075;-57
2023/05/06 05:09:16;;;;;;;4.32;4.00;;;;;;;;;;4205835;28;20094;-57
2023/05/06 05:11:37;;;;;;;4.30;4.10;;;;;;;;;;4207091;28;20047;-57
2023/05/06 05:13:57;;;;;;;3.63;3.63;;;;;;;;;;4206017;28;20055;-57
2023/05/06 05:16:21;;;;;;;4.18;4.03;;;;;;;;;;4206764;28;20052;-58
2023/05/06 05:18:41;;;;;;;3.25;3.13;;;;;;;;;;4205568;28;20220;-57
2023/05/06 05:21:01;;;;;;;3.13;3.05;;;;;;;;;;4206902;28;20100;-58
2023/05/06 05:23:21;;;;;;;3.35;3.28;;;;;;;;;;4206992;28;20050;-58
2023/05/06 05:25:41;;;;;;;4.30;4.10;;;;;;;;;;4205988;28;20051;-57
2023/05/06 05:28:02;;;;;;;3.78;3.65;;;;;;;;;;4206796;28;20082;-58
2023/05/06 05:30:22;;;;;;;4.53;4.32;;;;;;;;;;4206414;28;20043;-57
2023/05/06 05:32:42;;;;;;;4.05;3.83;;;;;;;;;;4206977;28;20235;-57
2023/05/06 05:35:03;;;;;;;3.78;3.67;;;;;;;;;;4206808;28;20239;-57
2023/05/06 05:37:23;;;;;;;3.83;3.55;;;;;;;;;;4206530;28;20082;-57
2023/05/06 05:39:43;;;;;;;3.55;3.45;;;;;;;;;;4205980;28;20052;-58
2023/05/06 05:42:03;;;;;;;3.42;3.30;;;;;;;;;;4206685;28;20055;-57
2023/05/06 05:44:23;;;;;;;4.18;3.97;;;;;;;;;;4206612;28;20378;-58
2023/05/06 05:46:44;;;;;;;3.95;3.75;;;;;;;;;;4206466;28;20086;-58
2023/05/06 05:49:05;;;;;;;4.47;4.25;;;;;;;;;;4206442;28;20055;-58
2023/05/06 05:51:25;;;;;;;3.85;3.75;;;;;;;;;;4206389;28;20048;-58
2023/05/06 05:53:45;;;;;;;4.07;3.97;;;;;;;;;;4206495;28;20150;-58
2023/05/06 05:56:06;;;;;;;4.78;4.68;;;;;;;;;;4206460;28;20374;-58
2023/05/06 05:58:27;;;;;;;3.92;3.70;;;;;;;;;;4206228;28;20267;-58
2023/05/06 06:00:47;;;;;;;3.28;3.08;;;;;;;;;;4206283;28;20143;-57
2023/05/06 06:03:07;;;;;;;2.88;2.70;;;;;;;;;;4206115;28;20428;-57
2023/05/06 06:05:28;;;;;;;4.30;4.20;;;;;;;;;;4206343;28;20111;-57
2023/05/06 06:07:48;;;;;;;5.25;3.17;;;;;;;;;;4206061;28;20315;-57
2023/05/06 06:10:08;;;;;;;3.80;3.60;;;;;;;;;;4205841;28;20044;-58
2023/05/06 06:12:29;;;;;;;3.72;3.63;;;;;;;;;;4206073;28;20082;-58
2023/05/06 06:14:50;;;;;;;3.17;3.08;;;;;;;;;;4191018;28;20355;-57
2023/05/06 06:17:10;;;;;;;2.72;2.63;;;;;;;;;;4205581;28;20062;-57
2023/05/06 06:19:31;;;;;;;3.58;3.58;;;;;;;;;;4205615;28;20394;-57
2023/05/06 06:21:51;;;;;;;3.45;3.35;;;;;;;;;;4205855;28;20056;-58
2023/05/06 06:24:12;;;;;;;2.90;2.80;;;;;;;;;;4205439;28;20117;-57
2023/05/06 06:26:32;;;;;;;2.20;2.20;;;;;;;;;;4205450;28;20075;-57
2023/05/06 06:28:52;;;;;;;2.97;2.97;;;;;;;;;;4206007;28;20120;-58
2023/05/06 06:31:12;;;;;;;2.38;2.38;;;;;;;;;;4205717;28;20561;-57
2023/05/06 06:33:33;;;;;;;2.80;2.75;;;;;;;;;;4205264;28;20067;-56
2023/05/06 06:35:53;;;;;;;1.95;1.85;;;;;;;;;;4205905;28;20394;-56
2023/05/06 06:38:13;;;;;;;2.13;1.52;;;;;;;;;;4204715;28;20137;-57
2023/05/06 06:40:33;;;;;;;2.05;2.05;;;;;;;;;;4204916;28;20096;-57
2023/05/06 06:42:54;;;;;;;2.53;2.20;;;;;;;;;;4205853;28;20074;-57
2023/05/06 06:45:14;;;;;;;2.03;2.03;;;;;;;;;;4204706;28;20052;-57
2023/05/06 06:47:34;;;;;;;2.20;2.20;;;;;;;;;;4205711;28;20050;-56
2023/05/06 06:49:55;;;;;;;1.80;1.80;;;;;;;;;;4204643;28;20071;-57
2023/05/06 06:52:15;;;;;;;2.00;1.70;;;;;;;;;;4189442;28;20083;-56
2023/05/06 06:54:37;;;;;;;1.60;1.60;;;;;;;;;;4188457;28;20076;-56
2023/05/06 06:57:00;;;;;;;2.40;1.60;;;;;;;;;;4190390;28;20043;-56
2023/05/06 06:59:21;;;;;;;1.45;1.45;;;;;;;;;;4205621;28;20071;-57
2023/05/06 07:01:41;;;;;;;1.73;1.70;;;;;;;;;;4204530;28;20059;-57
2023/05/06 07:04:01;;;;;;;1.23;1.23;;;;;;;;;;4204011;28;20043;-56
2023/05/06 07:06:22;;;;;;;1.25;1.15;;;;;;;;;;4205401;28;20048;-57
2023/05/06 07:08:43;;;;;;;1.10;1.10;;;;;;;;;;4204485;28;20067;-57
2023/05/06 07:11:03;;;;;;;1.00;1.00;;;;;;;;;;4204558;28;20048;-57
2023/05/06 07:13:26;;;;;;;;;;;;;;;;;;4205299;28;20051;-57
2023/05/06 07:15:46;;;;;;;1.10;1.10;;;;;;;;;;4205493;28;19931;-57
2023/05/06 07:18:07;;;;;;;1.10;1.10;;;;;;;;;;4204736;28;20137;-57
2023/05/06 07:20:27;;;;;;;1.23;1.20;;;;;;;;;;4204608;28;20051;-57
2023/05/06 07:22:47;;;;;;;1.20;1.20;;;;;;;;;;4205216;28;20090;-57
2023/05/06 07:25:07;;;;;;;1.00;1.00;;;;;;;;;;4204712;28;20063;-57
2023/05/06 07:27:29;;;;;;;1.50;1.10;;;;;;;;;;4204301;28;20235;-57
2023/05/06 07:29:50;;;;;;;1.52;1.52;;;;;;;;;;4205177;28;20280;-57
2023/05/06 07:32:10;;;;;;;1.10;1.10;;;;;;;;;;4205092;28;20042;-57
2023/05/06 07:34:31;;;;;;;1.00;1.00;;;;;;;;;;4205257;28;20071;-57
2023/05/06 07:36:52;;;;;;;1.63;1.00;;;;;;;;;;4205094;28;20067;-58
2023/05/06 07:39:12;;;;;;;1.10;1.10;;;;;;;;;;4204154;28;20074;-59
2023/05/06 07:41:32;;;;;;;1.10;1.10;;;;;;;;;;4204999;28;20079;-58
2023/05/06 07:43:53;;;;;;;1.95;1.15;;;;;;;;;;4205402;28;20108;-58
2023/05/06 07:46:13;;;;;;;1.48;1.00;;;;;;;;;;4205102;28;20087;-58
2023/05/06 07:48:33;;;;;;;3.10;1.20;;;;;;;;;;4204906;28;20110;-59
2023/05/06 07:50:54;;;;;;;1.50;1.10;;;;;;;;;;4204793;28;20051;-58
2023/05/06 07:53:14;;;;;;;1.20;1.20;;;;;;;;;;4204925;28;20078;-58
2023/05/06 07:55:36;;;;;;;1.00;1.00;;;;;;;;;;4203564;28;20048;-58
2023/05/06 07:57:56;;;;;;;1.30;1.30;;;;;;;;;;4204518;28;20097;-58
2023/05/06 08:00:17;;;;;;;1.00;1.00;;;;;;;;;;4204538;28;20380;-58
2023/05/06 08:02:42;;;;;;;1.35;1.00;;;;;;;;;;4204831;28;20044;-58
2023/05/06 08:05:03;;;;;;;1.38;1.10;;;;;;;;;;4204440;28;20341;-58
2023/05/06 08:07:23;;;;;;;0.95;0.95;;;;;;;;;;4205361;28;20047;-59
2023/05/06 08:09:43;;;;;;;1.10;1.10;;;;;;;;;;4204784;28;20051;-58
2023/05/06 08:12:04;;;;;;;0.90;0.90;;;;;;;;;;4189806;28;20055;-58
2023/05/06 08:14:25;;;;;;;1.00;0.98;;;;;;;;;;4204294;28;20047;-58
2023/05/06 08:16:46;;;;;;;1.27;1.00;;;;;;;;;;4207082;28;20044;-58
2023/05/06 08:19:06;;;;;;;3.10;1.00;;;;;;;;;;4207600;28;20235;-58
2023/05/06 08:21:26;;;;;;;1.02;1.00;;;;;;;;;;4206841;28;20059;-58
2023/05/06 08:23:47;;;;;;;1.20;1.20;;;;;;;;;;4207519;28;20086;-58
2023/05/06 08:26:07;;;;;;;1.08;0.90;;;;;;;;;;4207850;28;20089;-58
2023/05/06 08:28:28;;;;;;;1.15;1.05;;;;;;;;;;4207612;28;20048;-59
2023/05/06 08:30:50;;;;;;;1.88;1.20;;;;;;;;;;4207645;28;20369;-58
2023/05/06 08:33:10;;;;;;;1.00;1.00;;;;;;;;;;4207601;28;20086;-59
2023/05/06 08:35:30;;;;;;;1.25;0.90;;;;;;;;;;4207842;28;20116;-58
2023/05/06 08:37:51;;;;;;;1.10;1.00;;;;;;;;;;4207358;28;20040;-58
2023/05/06 08:40:19;;;;;;;0.90;0.90;;;;;;;;;;4206777;28;20078;-58
2023/05/06 08:42:39;;;;;;;4.63;1.25;;;;;;;;;;4207416;28;20101;-58
2023/05/06 08:44:59;;;;;;;1.00;0.90;;;;;;;;;;4206663;28;20043;-58
2023/05/06 08:47:19;;;;;;;1.73;0.93;;;;;;;;;;4209129;28;20098;-58
2023/05/06 08:49:40;;;;;;;0.90;0.90;;;;;;;;;;4207279;28;20155;-58
2023/05/06 08:52:03;;;;;;;0.90;0.90;;;;;;;;;;4207197;28;20362;-59
2023/05/06 08:54:25;;;;;;;0.88;0.88;;;;;;;;;;4206256;28;20083;-58
2023/05/06 08:56:47;;;;;;;0.90;0.90;;;;;;;;;;4206294;28;20367;-58
2023/05/06 08:59:12;;;;;;;4.50;0.90;;;;;;;;;;4206552;28;20101;-59
2023/05/06 09:01:32;;;;;;;1.10;0.90;;;;;;;;;;4206004;28;20108;-58
2023/05/06 09:03:54;;;;;;;1.30;1.30;;;;;;;;;;4206946;28;20047;-58
2023/05/06 09:06:14;;;;;;;1.10;1.10;;;;;;;;;;4206417;28;20063;-58
2023/05/06 09:08:35;;;;;;;0.90;0.90;;;;;;;;;;4207079;28;20063;-58
2023/05/06 09:10:56;;;;;;;1.17;0.90;;;;;;;;;;4206034;28;20067;-58
2023/05/06 09:13:18;;;;;;;0.88;0.88;;;;;;;;;;4206615;28;20055;-58
2023/05/06 09:15:39;;;;;;;1.50;0.93;;;;;;;;;;4205738;28;20094;-59
2023/05/06 09:18:00;;;;;;;0.80;0.80;;;;;;;;;;4207051;28;20107;-58
2023/05/06 09:20:20;;;;;;;0.80;0.80;;;;;;;;;;4207039;28;20048;-59
2023/05/06 09:22:41;;;;;;;1.58;0.80;;;;;;;;;;4206326;28;20120;-58
2023/05/06 09:25:01;;;;;;;0.98;0.88;;;;;;;;;;4207015;28;20052;-58
2023/05/06 09:27:25;;;;;;;0.80;0.80;;;;;;;;;;4206247;28;20048;-59
2023/05/06 09:29:59;;;;;;;0.88;0.88;;;;;;;;;;4206070;28;20108;-58
2023/05/06 09:32:20;;;;;;;1.95;0.90;;;;;;;;;;4206805;28;20050;-59
2023/05/06 09:34:45;;;;;;;1.20;1.20;;;;;;;;;;4206714;28;20051;-59
2023/05/06 09:37:05;;;;;;;1.80;0.90;;;;;;;;;;4206390;28;20366;-58
2023/05/06 09:39:26;;;;;;;0.80;0.80;;;;;;;;;;4206703;28;20147;-58
2023/05/06 09:41:46;;;;;;;1.50;0.88;;;;;;;;;;4206041;28;20048;-58
2023/05/06 09:44:06;;;;;;;2.85;0.90;;;;;;;;;;4206702;28;20090;-59
2023/05/06 09:46:26;;;;;;;0.80;0.80;;;;;;;;;;4205744;28;20047;-58
2023/05/06 09:48:49;;;;;;;1.27;0.90;;;;;;;;;;4206217;28;20094;-58
2023/05/06 09:51:09;;;;;;;0.90;0.90;;;;;;;;;;4205234;28;20052;-58
2023/05/06 09:53:30;;;;;;;0.80;0.80;;;;;;;;;;4206600;28;20302;-58
2023/05/06 09:55:51;;;;;;;0.85;0.85;;;;;;;;;;4189578;28;20108;-58
2023/05/06 09:58:12;;;;;;;0.95;0.80;;;;;;;;;;4205469;28;20044;-58
2023/05/06 10:00:32;;;;;;;1.52;0.80;;;;;;;;;;4206287;28;20075;-58
2023/05/06 10:02:52;;;;;;;0.80;0.80;;;;;;;;;;4206098;28;20118;-58
2023/05/06 10:05:13;;;;;;;0.88;0.88;;;;;;;;;;4205330;28;20070;-58
2023/05/06 10:07:35;;;;;;;0.80;0.80;;;;;;;;;;4206303;28;20234;-58
2023/05/06 10:09:57;;;;;;;3.67;0.80;;;;;;;;;;4206055;28;20082;-58
2023/05/06 10:12:18;;;;;;;3.92;0.80;;;;;;;;;;4206126;28;20055;-59
2023/05/06 10:14:38;;;;;;;1.95;0.75;;;;;;;;;;4205021;28;20055;-58
2023/05/06 10:16:59;;;;;;;0.80;0.80;;;;;;;;;;4206279;28;20062;-58
2023/05/06 10:19:23;;;;;;;0.70;0.70;;;;;;;;;;4206331;28;20087;-58
2023/05/06 10:21:46;;;;;;;0.70;0.70;;;;;;;;;;4206126;28;20080;-58
2023/05/06 10:24:09;;;;;;;0.70;0.70;;;;;;;;;;4205277;28;20062;-58
2023/05/06 10:26:30;;;;;;;0.70;0.70;;;;;;;;;;4206188;28;20067;-58
2023/05/06 10:28:52;;;;;;;0.80;0.80;;;;;;;;;;4206522;28;20063;-58
2023/05/06 10:31:12;;;;;;;0.65;0.65;;;;;;;;;;4206163;28;20048;-58
2023/05/06 10:33:33;;;;;;;1.75;1.15;;;;;;;;;;4205284;28;20086;-58
2023/05/06 10:35:56;;;;;;;0.70;0.70;;;;;;;;;;4206092;28;20239;-58
2023/05/06 10:38:19;;;;;;;1.05;0.70;;;;;;;;;;4204598;28;20075;-59
2023/05/06 10:40:40;;;;;;;0.80;0.80;;;;;;;;;;4204467;28;20430;-58
2023/05/06 10:43:20;;;;;;;1.38;0.90;;;;;;;;;;4205883;28;20413;-58
2023/05/06 10:46:00;;;;;;;0.70;0.70;;;;;;;;;;4201087;28;20094;-58
2023/05/06 10:48:20;;;;;;;1.38;0.75;;;;;;;;;;4204424;28;20471;-58
2023/05/06 10:50:40;;;;;;;5.18;0.70;;;;;;;;;;4204739;28;20051;-58
2023/05/06 10:53:00;;;;;;;3.75;1.00;;;;;;;;;;4205888;28;20048;-58
2023/05/06 10:55:28;;;;;;;1.27;0.70;;;;;;;;;;4205837;28;20055;-58
2023/05/06 10:57:48;;;;;;;1.80;0.73;;;;;;;;;;4205750;28;20367;-58
2023/05/06 11:00:10;;;;;;;0.75;0.75;;;;;;;;;;4204232;28;20124;-58
2023/05/06 11:02:31;;;;;;;0.70;0.70;;;;;;;;;;4206002;28;20055;-58
2023/05/06 11:04:51;;;;;;;0.70;0.70;;;;;;;;;;4205616;28;20275;-58
2023/05/06 11:07:15;;;;;;;0.70;0.70;;;;;;;;;;4204726;28;20047;-58
2023/05/06 11:09:53;;;;;;;0.70;0.70;;;;;;;;;;4205693;28;20409;-59
2023/05/06 11:12:13;;;;;;;0.60;0.60;;;;;;;;;;4205415;28;20055;-58
2023/05/06 11:14:34;;;;;;;1.48;0.70;;;;;;;;;;4205425;28;20108;-57
2023/05/06 11:16:56;;;;;;;0.73;0.70;;;;;;;;;;4205376;28;20090;-58
2023/05/06 11:19:26;;;;;;;0.60;0.60;;;;;;;;;;4190814;28;20060;-58
2023/05/06 11:21:46;;;;;;;0.70;0.70;;;;;;;;;;4204970;28;20647;-58
2023/05/06 11:24:10;;;;;;;0.60;0.60;;;;;;;;;;4205390;28;20104;-58
2023/05/06 11:26:31;;;;;;;0.70;0.70;;;;;;;;;;4190068;28;20047;-58
2023/05/06 11:28:52;;;;;;;1.08;0.60;;;;;;;;;;4205598;28;20089;-59
2023/05/06 11:31:12;;;;;;;0.60;0.60;;;;;;;;;;4204554;28;20056;-58
2023/05/06 11:33:34;;;;;;;1.38;0.60;;;;;;;;;;4205200;28;20090;-57
2023/05/06 11:35:54;;;;;;;0.60;0.60;;;;;;;;;;4204117;28;20094;-58
2023/05/06 11:38:15;;;;;;;1.42;0.60;;;;;;;;;;4204772;28;20078;-58
2023/05/06 11:40:35;;;;;;;1.73;0.60;;;;;;;;;;4203267;28;20051;-58
2023/05/06 11:42:55;;;;;;;0.60;0.60;;;;;;;;;;4204789;28;20362;-58
2023/05/06 11:45:16;;;;;;;0.60;0.60;;;;;;;;;;4204798;28;20060;-57
2023/05/06 11:47:43;;;;;;;1.17;0.50;;;;;;;;;;4205220;28;20052;-58
2023/05/06 11:50:06;;;;;;;1.30;0.60;;;;;;;;;;4203519;28;20047;-57
2023/05/06 11:52:26;;;;;;;0.60;0.60;;;;;;;;;;4204772;28;20044;-58
2023/05/06 11:54:46;;;;;;;1.25;0.60;;;;;;;;;;4204858;28;20121;-58
2023/05/06 11:57:07;;;;;;;1.35;0.70;;;;;;;;;;4202239;28;20413;-58
2023/05/06 11:59:28;;;;;;;0.60;0.60;;;;;;;;;;4205054;28;20047;-58
2023/05/06 12:01:49;;;;;;;0.60;0.60;;;;;;;;;;4204318;28;20264;-57
2023/05/06 12:04:10;;;;;;;0.70;0.70;;;;;;;;;;4204290;28;20086;-57
2023/05/06 12:06:36;;;;;;;0.60;0.60;;;;;;;;;;4203655;28;20075;-58
2023/05/06 12:08:57;;;;;;;0.80;0.60;;;;;;;;;;4204443;28;20040;-58
2023/05/06 12:11:17;;;;;;;0.60;0.60;;;;;;;;;;4204666;28;20055;-58
2023/05/06 12:13:39;;;;;;;0.60;0.60;;;;;;;;;;4204714;28;20051;-58
2023/05/06 12:16:00;;;;;;;0.60;0.60;;;;;;;;;;4204404;28;20063;-58
2023/05/06 12:18:20;;;;;;;1.35;0.60;;;;;;;;;;4204483;28;20161;-58
2023/05/06 12:20:41;;;;;;;0.50;0.50;;;;;;;;;;4204511;28;20090;-58
2023/05/06 12:23:05;;;;;;;0.50;0.50;;;;;;;;;;4204567;28;20063;-58
2023/05/06 12:25:25;;;;;;;2.15;0.50;;;;;;;;;;4203991;28;20090;-58
2023/05/06 12:27:46;;;;;;;0.60;0.60;;;;;;;;;;4204673;28;20067;-58
2023/05/06 12:30:07;;;;;;;0.60;0.60;;;;;;;;;;4204420;28;20090;-58
2023/05/06 12:32:28;;;;;;;0.60;0.60;;;;;;;;;;4203454;28;20052;-58
2023/05/06 12:34:48;;;;;;;0.50;0.50;;;;;;;;;;4203846;28;20086;-58
2023/05/06 12:37:08;;;;;;;0.70;0.70;;;;;;;;;;4203741;28;20349;-58
2023/05/06 12:39:33;;;;;;;0.60;0.60;;;;;;;;;;4204494;28;20060;-58
2023/05/06 12:41:53;;;;;;;0.60;0.60;;;;;;;;;;4203316;28;20051;-58
2023/05/06 12:44:33;;;;;;;0.60;0.60;;;;;;;;;;4204116;28;20044;-58
2023/05/06 12:46:53;;;;;;;0.50;0.50;;;;;;;;;;4204604;28;20051;-58
2023/05/06 12:49:14;;;;;;;0.77;0.60;;;;;;;;;;4204270;28;20082;-58
2023/05/06 12:51:34;;;;;;;0.50;0.50;;;;;;;;;;4203559;28;20107;-58
2023/05/06 12:53:54;;;;;;;0.50;0.50;;;;;;;;;;4204450;28;20051;-58
2023/05/06 12:56:14;;;;;;;0.60;0.60;;;;;;;;;;4203929;28;20251;-58
2023/05/06 12:58:36;;;;;;;0.60;0.60;;;;;;;;;;4204367;28;20116;-59
2023/05/06 13:00:56;;;;;;;1.30;0.60;;;;;;;;;;4203896;28;20086;-58
2023/05/06 13:03:17;;;;;;;3.03;0.85;;;;;;;;;;4207165;28;20138;-58
2023/05/06 13:05:38;;;;;;;0.60;0.60;;;;;;;;;;4207300;28;20089;-58
2023/05/06 13:07:58;;;;;;;1.15;0.50;;;;;;;;;;4207278;28;20067;-59
2023/05/06 13:10:19;;;;;;;0.70;0.60;;;;;;;;;;4206278;28;20086;-58
2023/05/06 13:12:39;;;;;;;1.48;0.50;;;;;;;;;;4206219;28;20043;-58
2023/05/06 13:15:00;;;;;;;2.60;0.88;;;;;;;;;;4206138;28;20055;-58
2023/05/06 13:17:20;;;;;;;0.50;0.50;;;;;;;;;;4206098;28;20052;-59
2023/05/06 13:19:41;;;;;;;0.77;0.77;;;;;;;;;;4206668;28;20054;-58
2023/05/06 13:22:01;;;;;;;1.48;0.60;;;;;;;;;;4206915;28;20145;-58
2023/05/06 13:24:21;;;;;;;3.05;0.52;;;;;;;;;;4206731;28;20120;-58
2023/05/06 13:26:41;;;;;;;0.63;0.50;;;;;;;;;;4206290;28;20064;-58
2023/05/06 13:29:02;;;;;;;0.50;0.50;;;;;;;;;;4206872;28;20043;-58
2023/05/06 13:31:22;;;;;;;0.52;0.52;;;;;;;;;;4206972;28;20235;-58
2023/05/06 13:33:42;;;;;;;0.50;0.50;;;;;;;;;;4207187;28;20051;-57
2023/05/06 13:36:02;;;;;;;0.60;0.60;;;;;;;;;;4206633;28;20294;-57
2023/05/06 13:38:25;;;;;;;;;;;;;;;;;;4206457;28;20235;-57
2023/05/06 13:40:46;;;;;;;0.60;0.52;;;;;;;;;;4207231;28;20104;-57
2023/05/06 13:43:06;;;;;;;0.60;0.60;;;;;;;;;;4189925;28;20052;-57
2023/05/06 13:45:26;;;;;;;0.88;0.88;;;;;;;;;;4206757;28;20158;-57
2023/05/06 13:47:46;;;;;;;0.50;0.50;;;;;;;;;;4205619;28;20101;-57
2023/05/06 13:50:07;;;;;;;1.15;0.50;;;;;;;;;;4206969;28;20116;-57
2023/05/06 13:52:27;;;;;;;0.57;0.57;;;;;;;;;;4207123;28;20043;-57
2023/05/06 13:54:48;;;;;;;1.40;0.50;;;;;;;;;;4206130;28;20236;-57
2023/05/06 13:57:08;;;;;;;2.20;0.50;;;;;;;;;;4206935;28;20048;-57
2023/05/06 13:59:28;;;;;;;0.73;0.50;;;;;;;;;;4206548;28;20239;-57
2023/05/06 14:01:52;;;;;;;0.52;0.52;;;;;;;;;;4199144;28;20170;-57
2023/05/06 14:04:12;;;;;;;0.50;0.50;;;;;;;;;;4206455;28;20086;-57
2023/05/06 14:06:32;;;;;;;0.60;0.60;;;;;;;;;;4206832;28;20239;-57